Time;durP1;ratioP1;P1;durP2;ratioP2;P2;SDS_P1;SDS_P2;PMS_P1;PMS_P2;Temp;Humidity;BMP_temperature;BMP_pressure;BME280_temperature;BME280_humidity;BME280_pressure;Samples;Min_cycle;Max_cycle;Signal;HPM_P1;HPM_P2
2022/11/23 00:00:17;;;;;;;13.63;4.95;;;4.50;99.90;;;;;;5026191;28;20066;-40
2022/11/23 00:02:42;;;;;;;13.95;5.50;;;4.60;99.90;;;;;;5027117;28;20026;-40
2022/11/23 00:05:08;;;;;;;12.07;4.10;;;4.60;99.90;;;;;;5025667;28;20037;-40
2022/11/23 00:07:33;;;;;;;22.98;5.53;;;4.70;99.90;;;;;;5026686;28;20025;-40
2022/11/23 00:09:59;;;;;;;13.77;4.95;;;4.70;99.90;;;;;;5025930;28;20062;-40
2022/11/23 00:12:24;;;;;;;14.45;4.82;;;4.70;99.90;;;;;;5026478;28;20531;-40
2022/11/23 00:14:50;;;;;;;16.83;5.38;;;4.80;99.90;;;;;;5026350;28;20022;-40
2022/11/23 00:17:15;;;;;;;12.75;4.60;;;4.80;99.90;;;;;;5026781;28;20025;-39
2022/11/23 00:19:41;;;;;;;13.02;5.18;;;4.90;99.90;;;;;;5026397;28;20462;-39
2022/11/23 00:22:06;;;;;;;8.95;4.25;;;4.90;99.90;;;;;;5025936;28;20224;-39
2022/11/23 00:24:31;;;;;;;12.98;4.50;;;4.90;99.90;;;;;;5018422;28;20010;-39
2022/11/23 00:26:57;;;;;;;14.80;6.20;;;4.90;99.90;;;;;;5059363;28;20032;-40
2022/11/23 00:29:22;;;;;;;11.77;4.90;;;4.90;99.90;;;;;;5026175;28;20106;-39
2022/11/23 00:31:48;;;;;;;13.13;4.68;;;5.00;99.90;;;;;;5026358;28;20022;-39
2022/11/23 00:34:14;;;;;;;17.63;5.22;;;5.00;99.90;;;;;;5035359;28;20024;-39
2022/11/23 00:36:40;;;;;;;14.50;4.80;;;5.00;99.90;;;;;;5045973;28;20030;-39
2022/11/23 00:39:05;;;;;;;18.17;6.72;;;5.00;99.90;;;;;;5025955;28;20044;-40
2022/11/23 00:41:31;;;;;;;14.90;4.00;;;5.00;99.90;;;;;;5024821;28;20026;-39
2022/11/23 00:43:56;;;;;;;12.23;4.93;;;5.00;99.90;;;;;;5026127;28;20050;-39
2022/11/23 00:46:27;;;;;;;12.50;4.28;;;4.90;99.90;;;;;;5026352;28;20038;-39
2022/11/23 00:48:54;;;;;;;;;;;4.90;99.90;;;;;;5026752;28;20309;-39
2022/11/23 00:51:31;;;;;;;12.05;4.10;;;4.90;99.90;;;;;;5022838;28;20012;-39
2022/11/23 00:53:58;;;;;;;14.70;4.90;;;4.80;99.90;;;;;;5060017;28;20070;-39
2022/11/23 00:56:24;;;;;;;8.95;4.82;;;4.80;99.90;;;;;;5025845;28;20359;-39
2022/11/23 00:58:52;;;;;;;8.90;4.47;;;4.80;99.90;;;;;;5025731;28;20135;-40
2022/11/23 01:01:20;;;;;;;11.77;6.35;;;4.70;99.90;;;;;;5025057;28;20057;-39
2022/11/23 01:03:49;;;;;;;10.52;4.50;;;4.70;99.90;;;;;;5024600;28;20075;-39
2022/11/23 01:06:17;;;;;;;9.27;4.53;;;4.60;99.90;;;;;;5026031;28;20037;-40
2022/11/23 01:08:51;;;;;;;5.68;4.38;;;4.50;99.90;;;;;;5024385;28;20146;-40
2022/11/23 01:11:17;;;;;;;10.95;5.20;;;4.50;99.90;;;;;;5025558;28;20543;-40
2022/11/23 01:13:42;;;;;;;11.63;5.05;;;4.40;99.90;;;;;;5025804;28;20029;-40
2022/11/23 01:16:23;;;;;;;8.68;4.72;;;4.40;99.90;;;;;;5025829;28;20025;-40
2022/11/23 01:18:53;;;;;;;11.20;4.75;;;4.30;99.90;;;;;;5025707;28;20029;-40
2022/11/23 01:21:18;;;;;;;15.10;6.17;;;4.20;99.90;;;;;;5023175;28;20037;-40
2022/11/23 01:23:44;;;;;;;12.93;6.22;;;4.10;99.90;;;;;;5056034;28;20047;-40
2022/11/23 01:26:10;;;;;;;16.58;5.95;;;4.10;99.90;;;;;;5059620;28;20065;-40
2022/11/23 01:28:38;;;;;;;15.57;5.40;;;4.00;99.90;;;;;;5025923;28;20033;-40
2022/11/23 01:31:06;;;;;;;13.00;5.68;;;4.00;99.90;;;;;;5024261;28;20050;-40
2022/11/23 01:33:31;;;;;;;15.93;6.30;;;4.00;99.90;;;;;;5025492;28;20018;-40
2022/11/23 01:35:57;;;;;;;14.05;6.55;;;4.00;99.90;;;;;;5028978;28;20030;-40
2022/11/23 01:38:22;;;;;;;15.23;6.32;;;4.00;99.90;;;;;;5029182;28;20032;-40
2022/11/23 01:40:48;;;;;;;15.15;6.40;;;4.00;99.90;;;;;;5028632;28;20018;-39
2022/11/23 01:43:17;;;;;;;12.73;6.80;;;3.90;99.90;;;;;;5027769;28;20025;-40
2022/11/23 01:46:00;;;;;;;12.75;6.88;;;3.90;99.90;;;;;;5029021;28;20474;-39
2022/11/23 01:48:38;;;;;;;11.32;6.10;;;3.90;99.90;;;;;;5028936;28;20028;-39
2022/11/23 01:51:06;;;;;;;12.73;6.55;;;3.80;99.90;;;;;;5027087;28;20025;-40
2022/11/23 01:53:32;;;;;;;10.57;6.22;;;3.70;99.90;;;;;;5027489;28;20029;-40
2022/11/23 01:56:01;;;;;;;9.82;6.38;;;3.70;99.90;;;;;;5060973;28;20495;-39
2022/11/23 01:58:30;;;;;;;13.85;7.20;;;3.70;99.90;;;;;;5029495;28;20398;-40
2022/11/23 02:00:56;;;;;;;14.38;7.38;;;3.70;99.90;;;;;;5028251;28;20056;-40
2022/11/23 02:03:22;;;;;;;12.60;6.85;;;3.60;99.90;;;;;;5028522;28;20623;-40
2022/11/23 02:05:53;;;;;;;11.30;6.93;;;3.60;99.90;;;;;;5028960;28;20098;-40
2022/11/23 02:08:20;;;;;;;16.30;7.45;;;3.60;99.90;;;;;;5028464;28;20030;-40
2022/11/23 02:10:46;;;;;;;15.40;7.60;;;3.50;99.90;;;;;;5024802;28;20382;-40
2022/11/23 02:13:12;;;;;;;13.52;6.78;;;3.50;99.90;;;;;;5028144;28;20533;-40
2022/11/23 02:15:39;;;;;;;13.10;7.43;;;3.50;99.90;;;;;;5027228;28;20131;-40
2022/11/23 02:18:12;;;;;;;13.65;6.18;;;3.50;99.90;;;;;;5028302;28;20021;-39
2022/11/23 02:20:38;;;;;;;10.65;6.07;;;3.50;99.90;;;;;;5027837;28;20105;-40
2022/11/23 02:23:03;;;;;;;12.43;6.20;;;3.50;99.90;;;;;;5028373;28;20136;-39
2022/11/23 02:25:44;;;;;;;17.85;6.97;;;3.40;99.90;;;;;;5046449;28;20019;-40
2022/11/23 02:28:23;;;;;;;14.48;5.70;;;3.50;99.90;;;;;;5029751;28;20505;-39
2022/11/23 02:30:51;;;;;;;15.43;5.88;;;3.50;99.90;;;;;;5027668;28;20236;-39
2022/11/23 02:33:17;;;;;;;11.63;5.72;;;3.50;99.90;;;;;;5037735;28;20057;-39
2022/11/23 02:35:54;;;;;;;9.38;5.38;;;3.60;99.90;;;;;;5046469;28;20412;-40
2022/11/23 02:38:21;;;;;;;13.27;5.05;;;3.60;99.90;;;;;;5026836;28;20110;-40
2022/11/23 02:40:47;;;;;;;10.52;4.75;;;3.70;99.90;;;;;;5027533;28;20044;-40
2022/11/23 02:43:13;;;;;;;11.82;4.95;;;3.80;99.90;;;;;;5028202;28;20423;-40
2022/11/23 02:45:45;;;;;;;16.85;6.22;;;3.80;99.90;;;;;;5027652;28;20517;-39
2022/11/23 02:48:10;;;;;;;14.57;5.45;;;3.80;99.90;;;;;;5027998;28;20069;-39
2022/11/23 02:50:36;;;;;;;9.13;4.80;;;3.90;99.90;;;;;;5027571;28;20030;-40
2022/11/23 02:53:01;;;;;;;9.23;5.28;;;3.90;99.90;;;;;;5027861;28;20026;-40
2022/11/23 02:55:27;;;;;;;19.30;5.30;;;4.00;99.90;;;;;;5027345;28;20022;-40
2022/11/23 02:57:52;;;;;;;14.70;5.45;;;4.00;99.90;;;;;;5027835;28;20029;-40
2022/11/23 03:00:18;;;;;;;13.70;4.95;;;4.00;99.90;;;;;;5027430;28;20325;-40
2022/11/23 03:02:43;;;;;;;10.00;4.32;;;4.10;99.90;;;;;;5016321;28;20502;-39
2022/11/23 03:05:09;;;;;;;14.55;4.88;;;4.10;99.90;;;;;;5062087;28;20041;-41
2022/11/23 03:07:34;;;;;;;10.43;4.70;;;4.20;99.90;;;;;;5027653;28;20125;-40
2022/11/23 03:10:00;;;;;;;15.75;5.28;;;4.20;99.90;;;;;;5025642;28;20034;-39
2022/11/23 03:12:25;;;;;;;9.77;4.40;;;4.20;99.90;;;;;;5026557;28;20041;-39
2022/11/23 03:14:51;;;;;;;13.57;4.65;;;4.20;99.90;;;;;;5027926;28;20039;-39
2022/11/23 03:17:17;;;;;;;11.27;5.50;;;4.20;99.90;;;;;;5027593;28;20537;-39
2022/11/23 03:19:42;;;;;;;20.67;5.32;;;4.20;99.90;;;;;;5027130;28;20090;-39
2022/11/23 03:22:07;;;;;;;15.15;7.07;;;4.30;99.90;;;;;;5027639;28;20021;-39
2022/11/23 03:24:33;;;;;;;12.02;5.75;;;4.20;99.90;;;;;;5020158;28;20018;-39
2022/11/23 03:26:59;;;;;;;10.32;4.85;;;4.20;99.90;;;;;;5062066;28;20237;-39
2022/11/23 03:29:25;;;;;;;13.80;5.25;;;4.20;99.90;;;;;;5026935;28;20071;-39
2022/11/23 03:31:51;;;;;;;15.40;5.75;;;4.20;99.90;;;;;;5026221;28;20095;-39
2022/11/23 03:34:17;;;;;;;18.08;6.20;;;4.20;99.90;;;;;;5035330;28;20156;-39
2022/11/23 03:36:42;;;;;;;13.75;6.10;;;4.20;99.90;;;;;;5045583;28;20283;-39
2022/11/23 03:39:08;;;;;;;13.35;4.70;;;4.30;99.90;;;;;;5024971;28;20022;-39
2022/11/23 03:41:34;;;;;;;11.30;5.40;;;4.40;99.90;;;;;;5026388;28;20024;-39
2022/11/23 03:43:59;;;;;;;8.32;4.68;;;4.40;99.90;;;;;;5027163;28;20188;-39
2022/11/23 03:46:25;;;;;;;10.88;5.07;;;4.50;99.90;;;;;;5027091;28;20045;-39
2022/11/23 03:48:50;;;;;;;11.88;5.18;;;4.50;99.90;;;;;;5027109;28;20078;-39
2022/11/23 03:51:16;;;;;;;15.38;5.35;;;4.50;99.90;;;;;;5026717;28;20030;-39
2022/11/23 03:53:41;;;;;;;9.82;4.57;;;4.50;99.90;;;;;;5026762;28;20030;-39
2022/11/23 03:56:07;;;;;;;10.75;4.03;;;4.60;99.90;;;;;;5026528;28;20032;-39
2022/11/23 03:58:32;;;;;;;12.05;4.50;;;4.60;99.90;;;;;;5026227;28;20025;-39
2022/11/23 04:00:58;;;;;;;13.82;4.47;;;4.80;99.90;;;;;;5026573;28;20034;-39
2022/11/23 04:03:23;;;;;;;14.00;5.10;;;4.80;99.90;;;;;;5019925;28;20028;-39
2022/11/23 04:05:49;;;;;;;10.10;4.32;;;4.80;99.90;;;;;;5061544;28;20029;-39
2022/11/23 04:08:14;;;;;;;16.00;4.63;;;4.90;99.90;;;;;;5026806;28;20117;-39
2022/11/23 04:10:40;;;;;;;13.63;4.75;;;4.90;99.90;;;;;;5026151;28;20029;-39
2022/11/23 04:13:05;;;;;;;16.40;5.38;;;4.90;99.90;;;;;;5026600;28;20033;-39
2022/11/23 04:15:31;;;;;;;9.13;4.60;;;5.00;99.90;;;;;;5026738;28;20469;-39
2022/11/23 04:17:56;;;;;;;7.63;4.47;;;4.90;99.90;;;;;;5027269;28;20026;-39
2022/11/23 04:20:22;;;;;;;11.38;5.03;;;4.90;99.90;;;;;;5026430;28;20024;-39
2022/11/23 04:22:47;;;;;;;10.20;4.30;;;4.90;99.90;;;;;;5026710;28;20060;-39
2022/11/23 04:25:13;;;;;;;13.90;4.80;;;4.90;99.90;;;;;;5033363;28;20404;-39
2022/11/23 04:27:38;;;;;;;9.50;5.00;;;4.90;99.90;;;;;;5046871;28;20071;-39
2022/11/23 04:30:04;;;;;;;9.85;4.38;;;4.90;99.90;;;;;;5026332;28;20033;-39
2022/11/23 04:32:30;;;;;;;8.98;4.70;;;5.00;99.90;;;;;;5026247;28;20030;-39
2022/11/23 04:34:55;;;;;;;15.95;5.57;;;5.00;99.90;;;;;;5026525;28;20033;-39
2022/11/23 04:37:21;;;;;;;11.75;4.93;;;5.00;99.90;;;;;;5021463;28;20026;-39
2022/11/23 04:39:46;;;;;;;17.30;5.07;;;5.00;99.90;;;;;;5059956;28;20025;-40
2022/11/23 04:42:12;;;;;;;11.52;5.07;;;5.00;99.90;;;;;;5026290;28;20096;-40
2022/11/23 04:44:37;;;;;;;8.98;4.43;;;5.00;99.90;;;;;;5026187;28;20523;-40
2022/11/23 04:47:03;;;;;;;10.20;4.90;;;5.10;99.90;;;;;;5026175;28;20022;-40
2022/11/23 04:49:28;;;;;;;11.73;5.63;;;5.10;99.90;;;;;;5026089;28;20078;-40
2022/11/23 04:51:54;;;;;;;10.45;4.38;;;5.10;99.90;;;;;;5026105;28;20036;-39
2022/11/23 04:54:19;;;;;;;8.57;4.80;;;5.10;99.90;;;;;;5025981;28;20363;-39
2022/11/23 04:56:45;;;;;;;21.40;5.05;;;5.10;99.90;;;;;;5026384;28;20025;-39
2022/11/23 04:59:10;;;;;;;14.80;4.90;;;5.20;99.90;;;;;;5025609;28;20403;-39
2022/11/23 05:01:36;;;;;;;13.88;4.82;;;5.20;99.90;;;;;;5025942;28;20565;-40
2022/11/23 05:04:01;;;;;;;11.38;4.93;;;5.20;99.90;;;;;;5026120;28;20112;-39
2022/11/23 05:06:27;;;;;;;11.23;4.47;;;5.20;99.90;;;;;;5026190;28;20060;-39
2022/11/23 05:08:52;;;;;;;14.32;4.72;;;5.20;99.90;;;;;;5055230;28;20099;-39
2022/11/23 05:11:19;;;;;;;10.77;4.22;;;5.30;99.90;;;;;;5025566;28;20028;-39
2022/11/23 05:13:44;;;;;;;9.32;4.85;;;5.30;99.90;;;;;;5025898;28;20406;-39
2022/11/23 05:16:10;;;;;;;13.15;4.53;;;5.40;99.90;;;;;;5025810;28;20030;-40
2022/11/23 05:18:35;;;;;;;12.57;5.15;;;5.40;99.90;;;;;;5025988;28;20108;-39
2022/11/23 05:21:01;;;;;;;12.73;6.72;;;5.40;99.90;;;;;;5024828;28;20026;-39
2022/11/23 05:23:26;;;;;;;11.23;4.80;;;5.40;99.90;;;;;;5025122;28;20021;-39
2022/11/23 05:25:52;;;;;;;15.35;4.88;;;5.30;99.90;;;;;;5025253;28;20029;-39
2022/11/23 05:28:20;;;;;;;12.30;4.90;;;5.40;99.90;;;;;;5025824;28;20390;-39
2022/11/23 05:30:46;;;;;;;16.60;5.00;;;5.40;99.90;;;;;;5025001;28;20041;-39
2022/11/23 05:33:12;;;;;;;12.57;5.43;;;5.40;99.90;;;;;;5023982;28;20674;-39
2022/11/23 05:35:38;;;;;;;12.77;5.05;;;5.50;99.90;;;;;;5025547;28;20025;-39
2022/11/23 05:38:04;;;;;;;15.57;4.40;;;5.40;99.90;;;;;;5025819;28;20490;-39
2022/11/23 05:40:29;;;;;;;11.10;4.97;;;5.50;99.90;;;;;;5025249;28;20045;-39
2022/11/23 05:42:56;;;;;;;10.40;4.47;;;5.50;99.90;;;;;;5026027;28;20025;-39
2022/11/23 05:45:22;;;;;;;6.07;4.20;;;5.50;99.90;;;;;;5025332;28;20502;-39
2022/11/23 05:47:51;;;;;;;11.85;4.95;;;5.60;99.90;;;;;;5025159;28;20059;-40
2022/11/23 05:50:17;;;;;;;11.98;4.70;;;5.60;99.90;;;;;;5023115;28;20036;-39
2022/11/23 05:52:43;;;;;;;8.35;4.82;;;5.60;99.90;;;;;;5025139;28;20040;-39
2022/11/23 05:55:08;;;;;;;13.07;4.78;;;5.70;99.90;;;;;;5025180;28;20034;-39
2022/11/23 05:57:34;;;;;;;11.05;4.53;;;5.70;99.90;;;;;;5025339;28;20025;-39
2022/11/23 05:59:59;;;;;;;8.93;5.25;;;5.60;99.90;;;;;;5025127;28;20437;-40
2022/11/23 06:02:25;;;;;;;15.00;4.90;;;5.70;99.90;;;;;;5025104;28;20032;-40
2022/11/23 06:04:50;;;;;;;14.55;5.25;;;5.70;99.90;;;;;;5025157;28;20022;-40
2022/11/23 06:07:16;;;;;;;9.55;4.63;;;5.80;99.90;;;;;;5024885;28;20017;-40
2022/11/23 06:09:41;;;;;;;14.00;4.93;;;5.80;99.90;;;;;;5024465;28;20043;-40
2022/11/23 06:12:07;;;;;;;12.02;5.47;;;5.70;99.90;;;;;;5025052;28;20083;-40
2022/11/23 06:14:32;;;;;;;11.27;4.50;;;5.70;99.90;;;;;;5025025;27;20553;-39
2022/11/23 06:16:58;;;;;;;12.20;4.90;;;5.70;99.90;;;;;;5025112;28;20258;-40
2022/11/23 06:19:23;;;;;;;9.68;5.03;;;5.70;99.90;;;;;;5024567;28;20017;-40
2022/11/23 06:21:49;;;;;;;14.32;5.18;;;5.80;99.90;;;;;;5027884;28;20109;-40
2022/11/23 06:24:14;;;;;;;11.75;4.45;;;5.80;99.90;;;;;;5026683;28;20033;-40
2022/11/23 06:26:40;;;;;;;12.93;4.97;;;5.80;99.90;;;;;;5028021;28;20033;-40
2022/11/23 06:29:05;;;;;;;14.63;5.00;;;5.80;99.90;;;;;;5027878;28;20309;-40
2022/11/23 06:31:31;;;;;;;12.02;4.75;;;5.80;99.90;;;;;;5027959;28;20146;-40
2022/11/23 06:33:56;;;;;;;12.63;4.82;;;5.80;99.90;;;;;;5027981;28;20225;-40
2022/11/23 06:36:21;;;;;;;11.32;4.40;;;5.80;99.90;;;;;;5028545;28;20379;-40
2022/11/23 06:38:47;;;;;;;12.57;5.72;;;5.80;99.90;;;;;;5028196;28;20017;-41
2022/11/23 06:41:13;;;;;;;9.13;4.72;;;5.80;99.90;;;;;;5026874;28;20447;-40
2022/11/23 06:43:38;;;;;;;11.15;4.90;;;5.80;99.90;;;;;;5027946;28;20026;-40
2022/11/23 06:46:05;;;;;;;11.50;4.20;;;5.90;99.90;;;;;;5027899;28;20033;-40
2022/11/23 06:48:31;;;;;;;15.43;4.70;;;5.90;99.90;;;;;;5027832;28;20401;-40
2022/11/23 06:51:00;;;;;;;12.05;5.93;;;6.00;99.90;;;;;;5027391;28;20116;-40
2022/11/23 06:53:27;;;;;;;11.40;4.95;;;6.00;99.90;;;;;;5027959;28;20032;-40
2022/11/23 06:55:56;;;;;;;9.98;4.40;;;6.00;99.90;;;;;;5027926;28;20444;-40
2022/11/23 06:58:21;;;;;;;12.32;4.85;;;6.00;99.90;;;;;;5027738;28;20113;-40
2022/11/23 07:00:47;;;;;;;11.68;4.22;;;5.90;99.90;;;;;;5027580;28;20104;-40
2022/11/23 07:03:21;;;;;;;14.40;4.75;;;5.90;99.90;;;;;;5027583;28;20034;-40
2022/11/23 07:05:47;;;;;;;13.13;4.97;;;5.90;99.90;;;;;;5026248;28;20033;-41
2022/11/23 07:08:12;;;;;;;14.35;4.60;;;5.90;99.90;;;;;;5027683;28;20021;-40
2022/11/23 07:10:38;;;;;;;10.80;4.40;;;5.90;99.90;;;;;;5027436;27;20021;-40
2022/11/23 07:13:06;;;;;;;13.88;5.10;;;5.90;99.90;;;;;;5026403;28;20060;-40
2022/11/23 07:15:32;;;;;;;9.98;4.07;;;5.90;99.90;;;;;;5027604;28;20034;-40
2022/11/23 07:17:57;;;;;;;13.63;4.38;;;5.90;99.90;;;;;;5026380;28;20078;-40
2022/11/23 07:20:26;;;;;;;12.27;3.72;;;6.00;99.90;;;;;;5025904;28;20474;-40
2022/11/23 07:23:03;;;;;;;13.65;4.32;;;6.00;99.90;;;;;;5027530;28;20045;-40
2022/11/23 07:25:30;;;;;;;9.23;4.40;;;6.00;99.90;;;;;;5026305;28;20075;-41
2022/11/23 07:28:00;;;;;;;10.45;3.70;;;6.00;99.90;;;;;;5027804;28;20382;-41
2022/11/23 07:30:30;;;;;;;11.68;4.03;;;6.00;99.90;;;;;;5027249;28;20022;-40
2022/11/23 07:33:07;;;;;;;9.15;3.97;;;6.00;99.90;;;;;;5027344;28;20026;-40
2022/11/23 07:35:33;;;;;;;10.05;4.10;;;6.00;99.90;;;;;;5027592;28;20021;-40
2022/11/23 07:37:59;;;;;;;15.38;4.40;;;6.10;99.90;;;;;;5027775;28;20025;-40
2022/11/23 07:40:26;;;;;;;8.27;3.95;;;6.10;99.90;;;;;;5025673;28;20498;-40
2022/11/23 07:42:51;;;;;;;7.72;3.72;;;6.20;99.90;;;;;;5025935;28;20423;-41
2022/11/23 07:45:17;;;;;;;15.02;4.32;;;6.20;99.90;;;;;;5026886;28;20108;-40
2022/11/23 07:47:43;;;;;;;8.82;3.95;;;6.20;99.90;;;;;;5027247;28;20034;-41
2022/11/23 07:50:11;;;;;;;11.77;4.40;;;6.20;99.90;;;;;;5026913;28;20279;-41
2022/11/23 07:52:38;;;;;;;10.27;3.97;;;6.20;99.90;;;;;;5027039;28;20486;-40
2022/11/23 07:55:05;;;;;;;8.63;3.55;;;6.20;99.90;;;;;;5027087;28;20028;-41
2022/11/23 07:57:31;;;;;;;6.72;3.50;;;6.30;99.90;;;;;;5027006;28;20098;-41
2022/11/23 07:59:57;;;;;;;10.95;3.55;;;6.30;99.90;;;;;;5026458;28;20052;-40
2022/11/23 08:02:22;;;;;;;7.80;4.25;;;6.50;99.90;;;;;;5026963;28;20017;-41
2022/11/23 08:04:48;;;;;;;10.95;4.03;;;6.40;99.90;;;;;;5026949;28;20021;-41
2022/11/23 08:07:13;;;;;;;10.38;3.60;;;6.50;99.90;;;;;;5026943;28;20335;-41
2022/11/23 08:09:39;;;;;;;13.93;3.97;;;6.50;99.90;;;;;;5024535;28;20497;-41
2022/11/23 08:12:05;;;;;;;10.70;3.65;;;6.60;99.90;;;;;;5027028;28;20037;-41
2022/11/23 08:14:31;;;;;;;8.57;3.33;;;6.50;99.90;;;;;;5026806;28;20389;-40
2022/11/23 08:16:56;;;;;;;9.45;3.75;;;6.60;99.90;;;;;;5026673;28;20105;-40
2022/11/23 08:19:22;;;;;;;8.43;3.45;;;6.60;99.90;;;;;;5026172;28;20134;-40
2022/11/23 08:21:47;;;;;;;8.07;3.75;;;6.70;99.90;;;;;;5026823;28;20026;-40
2022/11/23 08:24:13;;;;;;;11.75;4.18;;;6.70;99.90;;;;;;5026417;28;20132;-41
2022/11/23 08:26:38;;;;;;;9.73;3.50;;;6.80;99.90;;;;;;5026871;28;20068;-41
2022/11/23 08:29:04;;;;;;;8.75;3.80;;;6.90;99.90;;;;;;5026630;28;20017;-40
2022/11/23 08:31:30;;;;;;;7.72;3.17;;;6.90;99.90;;;;;;5026106;28;20044;-40
2022/11/23 08:33:55;;;;;;;11.48;3.45;;;6.90;99.90;;;;;;5026375;28;20033;-42
2022/11/23 08:36:21;;;;;;;8.75;3.30;;;7.00;99.90;;;;;;5026243;28;20025;-40
2022/11/23 08:38:50;;;;;;;9.00;3.22;;;7.10;99.90;;;;;;5026309;28;20104;-40
2022/11/23 08:41:17;;;;;;;7.28;3.15;;;7.20;99.90;;;;;;5025887;28;20021;-40
2022/11/23 08:43:42;;;;;;;12.02;3.70;;;7.20;99.90;;;;;;5025825;28;20591;-40
2022/11/23 08:46:08;;;;;;;9.00;3.05;;;7.20;99.90;;;;;;5026252;28;20033;-40
2022/11/23 08:48:33;;;;;;;12.40;4.40;;;7.30;99.90;;;;;;5026320;28;20390;-40
2022/11/23 08:50:59;;;;;;;7.85;3.65;;;7.30;99.90;;;;;;5025680;28;20061;-41
2022/11/23 08:53:25;;;;;;;10.18;2.85;;;7.50;99.90;;;;;;5024427;28;20048;-40
2022/11/23 08:55:51;;;;;;;9.40;3.22;;;7.50;99.90;;;;;;5026327;28;20048;-40
2022/11/23 08:58:16;;;;;;;6.93;3.00;;;7.60;99.90;;;;;;5026149;28;20026;-40
2022/11/23 09:00:41;;;;;;;9.20;3.13;;;7.70;99.90;;;;;;5025661;28;20033;-40
2022/11/23 09:03:07;;;;;;;10.07;3.63;;;7.60;99.90;;;;;;5025963;28;20490;-40
2022/11/23 09:05:33;;;;;;;8.85;2.70;;;7.70;99.90;;;;;;5024895;28;20021;-41
2022/11/23 09:07:59;;;;;;;6.72;2.70;;;7.80;99.90;;;;;;5026138;28;20052;-40
2022/11/23 09:10:25;;;;;;;7.30;2.90;;;7.90;99.90;;;;;;5024301;28;20030;-41
2022/11/23 09:12:51;;;;;;;11.02;3.00;;;7.90;99.90;;;;;;5024779;28;20029;-41
2022/11/23 09:15:17;;;;;;;7.97;2.58;;;7.90;99.90;;;;;;5025768;28;20032;-42
2022/11/23 09:17:43;;;;;;;11.93;3.42;;;8.00;99.90;;;;;;5025856;28;20018;-41
2022/11/23 09:20:10;;;;;;;10.77;3.80;;;8.10;99.90;;;;;;5025271;28;20022;-41
2022/11/23 09:22:36;;;;;;;6.80;3.15;;;8.10;99.90;;;;;;5025901;28;20026;-42
2022/11/23 09:25:02;;;;;;;7.10;3.10;;;8.20;99.90;;;;;;5025771;28;20139;-41
2022/11/23 09:27:27;;;;;;;14.38;3.53;;;8.20;99.90;;;;;;5024470;28;20263;-41
2022/11/23 09:29:53;;;;;;;12.45;3.15;;;8.20;99.90;;;;;;5024038;28;20054;-41
2022/11/23 09:32:19;;;;;;;8.07;3.33;;;8.30;99.90;;;;;;5024311;28;20029;-40
2022/11/23 09:34:45;;;;;;;9.65;3.42;;;8.40;99.90;;;;;;5025671;28;20022;-40
2022/11/23 09:37:12;;;;;;;7.03;2.65;;;8.40;99.90;;;;;;5025979;28;20453;-41
2022/11/23 09:39:37;;;;;;;7.40;3.10;;;8.40;99.90;;;;;;5023975;28;20028;-41
2022/11/23 09:42:15;;;;;;;9.07;2.88;;;8.40;99.90;;;;;;5025782;28;20021;-41
2022/11/23 09:44:56;;;;;;;8.13;2.83;;;8.40;99.90;;;;;;5025831;28;20493;-41
2022/11/23 09:47:28;;;;;;;10.20;2.65;;;8.50;99.90;;;;;;5025807;28;20075;-41
2022/11/23 09:50:11;;;;;;;5.70;2.50;;;8.70;99.90;;;;;;5023708;28;20025;-41
2022/11/23 09:52:44;;;;;;;10.80;3.78;;;8.80;99.90;;;;;;5025550;28;20037;-42
2022/11/23 09:55:18;;;;;;;7.05;2.85;;;8.80;99.90;;;;;;5026566;28;20063;-41
2022/11/23 09:57:46;;;;;;;12.60;2.88;;;8.70;99.90;;;;;;5027777;28;20029;-42
2022/11/23 10:00:19;;;;;;;7.00;2.50;;;8.80;99.90;;;;;;5028872;28;20026;-41
2022/11/23 10:02:45;;;;;;;9.02;2.80;;;8.90;99.90;;;;;;5029013;28;20028;-42
2022/11/23 10:05:21;;;;;;;6.88;2.92;;;9.00;99.90;;;;;;5028880;28;20050;-41
2022/11/23 10:08:14;;;;;;;7.47;2.40;;;9.10;99.90;;;;;;5028671;28;20082;-41
2022/11/23 10:10:43;;;;;;;5.53;2.75;;;9.10;99.90;;;;;;5026764;28;20034;-40
2022/11/23 10:13:27;;;;;;;6.95;2.38;;;9.20;99.90;;;;;;5028733;27;20124;-41
2022/11/23 10:16:28;;;;;;;12.43;2.72;;;9.20;99.90;;;;;;5028584;28;20028;-40
2022/11/23 10:19:04;;;;;;;10.57;2.72;;;9.30;99.90;;;;;;5028647;28;20028;-40
2022/11/23 10:21:54;;;;;;;9.82;3.03;;;9.60;99.90;;;;;;5028395;28;20018;-40
2022/11/23 10:24:29;;;;;;;5.88;2.45;;;9.70;99.90;;;;;;5029118;28;20026;-40
2022/11/23 10:26:56;;;;;;;9.88;2.67;;;9.80;99.90;;;;;;5028870;28;20436;-40
2022/11/23 10:29:32;;;;;;;8.93;3.17;;;9.90;99.90;;;;;;5028144;28;20022;-42
2022/11/23 10:31:58;;;;;;;3.03;1.98;;;10.20;99.90;;;;;;5029024;28;20022;-41
2022/11/23 10:34:54;;;;;;;8.07;2.85;;;10.40;99.90;;;;;;5028729;28;20394;-41
2022/11/23 10:37:19;;;;;;;8.23;3.30;;;10.60;99.90;;;;;;5028347;28;20726;-41
2022/11/23 10:39:45;;;;;;;8.23;2.58;;;11.00;99.90;;;;;;5027673;28;20068;-40
2022/11/23 10:42:36;;;;;;;6.30;2.42;;;12.20;99.90;;;;;;5028204;28;20024;-40
2022/11/23 10:45:03;;;;;;;6.97;2.85;;;12.90;99.90;;;;;;5028264;28;20432;-40
2022/11/23 10:47:39;;;;;;;8.20;2.20;;;13.10;99.90;;;;;;5027979;28;20018;-41
2022/11/23 10:50:25;;;;;;;5.78;1.80;;;12.50;99.90;;;;;;5027595;28;20025;-42
2022/11/23 10:52:56;;;;;;;3.83;1.70;;;12.40;99.90;;;;;;5026783;28;20296;-41
2022/11/23 10:55:28;;;;;;;8.75;2.33;;;11.90;99.90;;;;;;5028054;28;20021;-42
2022/11/23 10:57:54;;;;;;;11.13;2.05;;;11.40;99.90;;;;;;5027874;28;20514;-40
2022/11/23 11:00:21;;;;;;;6.93;2.15;;;10.90;99.90;;;;;;5027514;28;20212;-41
2022/11/23 11:02:55;;;;;;;12.45;3.03;;;10.70;99.90;;;;;;5027511;28;20026;-40
2022/11/23 11:05:36;;;;;;;3.85;2.00;;;10.30;99.90;;;;;;5027784;28;20569;-40
2022/11/23 11:08:15;;;;;;;6.05;2.00;;;10.20;99.90;;;;;;5028059;28;20135;-41
2022/11/23 11:10:45;;;;;;;5.53;2.05;;;10.00;99.90;;;;;;5027810;28;20340;-41
2022/11/23 11:13:22;;;;;;;7.63;2.53;;;10.00;99.90;;;;;;5026388;28;20274;-41
2022/11/23 11:16:15;;;;;;;7.25;2.28;;;10.00;99.90;;;;;;5027923;28;20045;-41
2022/11/23 11:18:41;;;;;;;4.60;2.10;;;10.00;99.90;;;;;;5026495;28;20045;-41
2022/11/23 11:21:16;;;;;;;8.50;2.50;;;10.00;99.90;;;;;;5025774;28;20026;-41
2022/11/23 11:23:47;;;;;;;9.35;2.20;;;10.00;99.90;;;;;;5027391;28;20021;-41
2022/11/23 11:26:17;;;;;;;;;;;9.90;99.90;;;;;;5026796;28;20022;-41
2022/11/23 11:28:48;;;;;;;6.03;2.05;;;9.90;99.90;;;;;;5027810;28;19959;-42
2022/11/23 11:32:03;;;;;;;4.20;1.67;;;9.80;99.90;;;;;;5025743;28;20030;-43
2022/11/23 11:34:40;;;;;;;10.13;2.70;;;9.90;99.90;;;;;;5017855;28;20041;-42
2022/11/23 11:37:41;;;;;;;5.50;2.28;;;9.90;99.90;;;;;;5020956;28;20025;-42
2022/11/23 11:40:28;;;;;;;6.13;2.47;;;9.90;99.90;;;;;;5007499;28;20032;-42
2022/11/23 11:43:20;;;;;;;4.38;2.42;;;10.10;99.90;;;;;;5007555;28;20079;-42
2022/11/23 11:45:49;;;;;;;6.72;2.00;;;10.20;99.90;;;;;;5006012;28;20030;-41
2022/11/23 11:48:34;;;;;;;7.13;1.85;;;10.20;99.90;;;;;;5006284;28;20058;-41
2022/11/23 11:51:05;;;;;;;3.90;2.45;;;10.10;99.90;;;;;;5004972;28;20030;-40
2022/11/23 11:53:42;;;;;;;6.57;2.47;;;10.00;99.90;;;;;;5005712;28;20034;-41
2022/11/23 11:56:33;;;;;;;7.60;2.80;;;10.00;99.90;;;;;;5007149;28;20113;-41
2022/11/23 11:59:20;;;;;;;13.07;2.58;;;10.00;99.90;;;;;;5006087;28;20025;-41
2022/11/23 12:01:49;;;;;;;18.95;7.40;;;9.90;99.90;;;;;;5005874;28;20108;-42
2022/11/23 12:04:29;;;;;;;7.47;3.13;;;9.90;99.90;;;;;;5005427;28;20033;-42
2022/11/23 12:07:23;;;;;;;5.53;2.20;;;10.00;99.90;;;;;;5007392;28;20018;-40
2022/11/23 12:09:53;;;;;;;11.43;1.85;;;10.00;99.90;;;;;;4996586;28;20031;-40
2022/11/23 12:12:21;;;;;;;6.55;2.65;;;9.90;99.90;;;;;;5002870;28;20187;-40
2022/11/23 12:14:46;;;;;;;7.90;2.28;;;9.90;99.90;;;;;;5006574;28;20440;-41
2022/11/23 12:17:56;;;;;;;4.93;2.08;;;10.00;99.90;;;;;;5057813;28;20013;-41
2022/11/23 12:20:52;;;;;;;11.43;2.33;;;10.10;99.90;;;;;;5007142;28;20057;-41
2022/11/23 12:23:33;;;;;;;8.00;2.40;;;10.10;99.90;;;;;;5027651;28;20093;-42
2022/11/23 12:26:16;;;;;;;7.45;2.33;;;10.10;99.90;;;;;;5059168;28;20083;-41
2022/11/23 12:28:58;;;;;;;7.65;2.30;;;10.20;99.90;;;;;;5061021;28;20086;-42
2022/11/23 12:31:39;;;;;;;6.00;2.15;;;10.30;99.90;;;;;;5026228;28;20078;-40
2022/11/23 12:34:33;;;;;;;6.82;2.60;;;10.50;99.90;;;;;;5026154;28;20057;-41
2022/11/23 12:37:10;;;;;;;3.92;1.77;;;10.60;99.90;;;;;;5012304;28;20399;-41
2022/11/23 12:40:12;;;;;;;8.05;2.30;;;10.80;99.90;;;;;;5060637;28;20022;-40
2022/11/23 12:42:44;;;;;;;5.47;2.00;;;10.90;99.90;;;;;;5026681;28;20029;-40
2022/11/23 12:45:52;;;;;;;5.40;1.75;;;11.00;99.90;;;;;;5023761;28;20453;-40
2022/11/23 12:48:58;;;;;;;3.42;1.67;;;11.10;99.90;;;;;;5010987;28;20028;-41
2022/11/23 12:51:39;;;;;;;9.00;1.83;;;11.20;99.90;;;;;;5006086;28;20076;-41
2022/11/23 12:54:14;;;;;;;;;;;11.00;99.90;;;;;;5057438;28;20024;-40
2022/11/23 12:56:59;;;;;;;6.68;1.73;;;10.90;99.90;;;;;;5026315;28;19905;-41
2022/11/23 12:59:29;;;;;;;7.00;2.72;;;10.80;99.90;;;;;;5025595;28;20024;-41
2022/11/23 13:02:01;;;;;;;7.63;2.58;;;10.60;99.90;;;;;;5013829;28;20032;-44